createdAt,value
2022-10-24T00:00:25.153Z,8.57
2022-10-24T00:03:12.055Z,8.50
2022-10-24T00:05:58.528Z,8.03
2022-10-24T00:08:45.071Z,9.57
2022-10-24T00:11:30.816Z,8.17
2022-10-24T00:14:16.738Z,8.17
2022-10-24T00:17:02.701Z,8.57
2022-10-24T00:19:48.327Z,10.40
2022-10-24T00:22:34.213Z,9.00
2022-10-24T00:25:20.548Z,9.20
2022-10-24T00:28:06.464Z,9.70
2022-10-24T00:30:53.256Z,8.93
2022-10-24T00:33:39.315Z,8.93
2022-10-24T00:36:25.284Z,9.87
2022-10-24T00:39:12.823Z,8.70
2022-10-24T00:42:01.380Z,9.50
2022-10-24T00:44:47.747Z,8.53
2022-10-24T00:47:33.728Z,9.70
2022-10-24T00:50:19.553Z,9.50
2022-10-24T00:53:05.380Z,8.53
2022-10-24T00:55:52.977Z,8.70
2022-10-24T00:58:39.654Z,8.63
2022-10-24T01:01:26.406Z,9.47
2022-10-24T01:04:13.393Z,8.80
2022-10-24T01:07:15.165Z,7.63
2022-10-24T01:10:08.425Z,8.47
2022-10-24T01:13:20.161Z,8.60
2022-10-24T01:16:14.179Z,7.93
2022-10-24T01:19:23.481Z,8.57
2022-10-24T01:22:22.066Z,8.70
2022-10-24T01:25:16.082Z,8.40
2022-10-24T01:28:05.287Z,7.93
2022-10-24T01:31:02.165Z,8.30
2022-10-24T01:33:52.813Z,7.73
2022-10-24T01:36:43.761Z,7.57
2022-10-24T01:39:34.947Z,6.70
2022-10-24T01:42:22.524Z,7.70
2022-10-24T01:45:09.949Z,7.67
2022-10-24T01:47:57.273Z,8.00
2022-10-24T01:50:43.953Z,11.07
2022-10-24T01:53:31.198Z,8.33
2022-10-24T01:56:17.457Z,8.33
2022-10-24T01:59:29.618Z,7.90
2022-10-24T02:02:24.343Z,7.40
2022-10-24T02:05:22.528Z,7.47
2022-10-24T02:08:13.175Z,7.10
2022-10-24T02:11:01.441Z,8.17
2022-10-24T02:13:52.074Z,7.63
2022-10-24T02:16:38.075Z,7.67
2022-10-24T02:19:25.197Z,7.40
2022-10-24T02:22:31.165Z,8.67
2022-10-24T02:25:20.182Z,7.80
2022-10-24T02:28:11.932Z,8.00
2022-10-24T02:31:03.413Z,7.20
2022-10-24T02:33:50.255Z,8.27
2022-10-24T02:36:36.948Z,7.60
2022-10-24T02:39:23.832Z,8.63
2022-10-24T02:42:10.517Z,7.90
2022-10-24T02:44:56.682Z,8.07
2022-10-24T02:47:44.244Z,8.47
2022-10-24T02:50:31.181Z,7.50
2022-10-24T02:53:20.055Z,7.53
2022-10-24T02:56:05.814Z,9.83
2022-10-24T02:58:51.592Z,7.10
2022-10-24T03:01:37.247Z,7.93
2022-10-24T03:04:23.163Z,8.53
2022-10-24T03:07:08.976Z,7.07
2022-10-24T03:09:54.736Z,8.80
2022-10-24T03:12:40.574Z,8.10
2022-10-24T03:15:26.037Z,8.43
2022-10-24T03:18:12.922Z,7.20
2022-10-24T03:20:59.209Z,7.23
2022-10-24T03:23:44.819Z,8.10
2022-10-24T03:26:30.825Z,7.80
2022-10-24T03:29:16.525Z,8.73
2022-10-24T03:32:02.287Z,8.30
2022-10-24T03:34:48.356Z,8.10
2022-10-24T03:37:34.067Z,8.30
2022-10-24T03:40:20.014Z,9.07
2022-10-24T03:43:05.839Z,7.60
2022-10-24T03:45:52.301Z,7.50
2022-10-24T03:48:38.705Z,7.50
2022-10-24T03:51:24.701Z,7.47
2022-10-24T03:54:11.751Z,8.13
2022-10-24T03:56:57.877Z,9.60
2022-10-24T03:59:43.620Z,7.07
2022-10-24T04:02:29.507Z,8.10
2022-10-24T04:05:15.652Z,8.80
2022-10-24T04:08:01.445Z,7.70
2022-10-24T04:10:49.059Z,8.30
2022-10-24T04:13:35.002Z,9.50
2022-10-24T04:16:21.101Z,9.17
2022-10-24T04:19:07.101Z,9.27
2022-10-24T04:21:52.993Z,8.63
2022-10-24T04:24:39.338Z,8.43
2022-10-24T04:27:26.769Z,8.77
2022-10-24T04:30:16.779Z,9.37
2022-10-24T04:33:03.004Z,8.47
2022-10-24T04:35:49.690Z,8.30
2022-10-24T04:38:36.578Z,9.10
2022-10-24T04:41:22.776Z,9.63
2022-10-24T04:44:08.337Z,9.27
2022-10-24T04:46:54.152Z,9.57
2022-10-24T04:49:40.543Z,9.50
2022-10-24T04:52:26.509Z,9.37
2022-10-24T04:55:12.724Z,9.20
2022-10-24T04:57:58.872Z,9.77
2022-10-24T05:00:48.532Z,7.83
2022-10-24T05:03:34.216Z,8.73
2022-10-24T05:06:20.114Z,8.40
2022-10-24T05:09:06.430Z,7.90
2022-10-24T05:11:52.186Z,9.63
2022-10-24T05:14:38.320Z,8.90
2022-10-24T05:17:25.004Z,10.43
2022-10-24T05:20:10.980Z,9.60
2022-10-24T05:22:57.239Z,8.17
2022-10-24T05:25:43.670Z,10.10
2022-10-24T05:28:29.967Z,9.30
2022-10-24T05:31:15.653Z,8.37
2022-10-24T05:34:01.551Z,9.43
2022-10-24T05:36:47.233Z,9.07
2022-10-24T05:39:32.915Z,9.00
2022-10-24T05:42:19.143Z,9.00
2022-10-24T05:45:06.266Z,8.70
2022-10-24T05:47:52.035Z,9.30
2022-10-24T05:50:37.623Z,9.10
2022-10-24T05:53:23.450Z,8.87
2022-10-24T05:56:10.267Z,9.50
2022-10-24T05:58:57.040Z,9.57
2022-10-24T06:01:42.995Z,10.40
2022-10-24T06:04:28.947Z,11.17
2022-10-24T06:07:14.944Z,10.00
2022-10-24T06:10:01.238Z,9.57
2022-10-24T06:12:47.536Z,8.83
2022-10-24T06:15:33.669Z,9.90
2022-10-24T06:18:20.139Z,9.40
2022-10-24T06:21:07.398Z,16.00
2022-10-24T06:23:53.763Z,11.40
2022-10-24T06:26:39.671Z,10.20
2022-10-24T06:29:25.357Z,10.23
2022-10-24T06:32:11.717Z,10.30
2022-10-24T06:34:57.605Z,11.47
2022-10-24T06:37:48.100Z,10.70
2022-10-24T06:40:34.529Z,10.80
2022-10-24T06:43:21.186Z,10.67
2022-10-24T06:46:08.085Z,10.90
2022-10-24T06:48:55.677Z,13.63
2022-10-24T06:51:42.182Z,13.80
2022-10-24T06:54:30.206Z,10.63
2022-10-24T06:57:18.204Z,8.87
2022-10-24T07:00:04.871Z,9.73
2022-10-24T07:02:50.706Z,8.37
2022-10-24T07:05:37.722Z,10.00
2022-10-24T07:08:23.586Z,9.80
2022-10-24T07:11:09.183Z,9.10
2022-10-24T07:13:58.251Z,14.27
2022-10-24T07:16:47.490Z,10.60
2022-10-24T07:19:37.224Z,10.90
2022-10-24T07:22:23.848Z,16.57
2022-10-24T07:25:09.736Z,11.03
2022-10-24T07:27:55.697Z,11.47
2022-10-24T07:30:44.362Z,12.67
2022-10-24T07:33:29.948Z,11.03
2022-10-24T07:36:17.854Z,10.60
2022-10-24T07:39:03.760Z,11.23
2022-10-24T07:41:49.572Z,10.50
2022-10-24T07:44:35.361Z,11.00
2022-10-24T07:47:21.094Z,11.30
2022-10-24T07:50:07.112Z,12.03
2022-10-24T07:52:52.784Z,8.53
2022-10-24T07:55:39.202Z,7.80
2022-10-24T07:58:25.008Z,7.60
2022-10-24T08:01:12.683Z,8.13
2022-10-24T08:03:58.383Z,7.13
2022-10-24T08:06:44.715Z,8.30
2022-10-24T08:09:30.522Z,8.67
2022-10-24T08:12:16.481Z,7.57
2022-10-24T08:15:02.660Z,7.90
2022-10-24T08:17:48.456Z,8.10
2022-10-24T08:20:34.460Z,6.47
2022-10-24T08:23:24.564Z,6.23
2022-10-24T08:26:13.040Z,7.40
2022-10-24T08:28:58.749Z,6.40
2022-10-24T08:31:44.463Z,5.60
2022-10-24T08:34:30.393Z,6.80
2022-10-24T08:37:16.199Z,5.47
2022-10-24T08:40:04.827Z,6.13
2022-10-24T08:42:50.705Z,6.47
2022-10-24T08:45:39.120Z,7.20
2022-10-24T08:48:29.367Z,7.90
2022-10-24T08:51:27.410Z,7.80
2022-10-24T08:54:24.056Z,7.13
2022-10-24T08:57:18.088Z,7.10
2022-10-24T09:00:08.823Z,5.93
2022-10-24T09:03:06.261Z,7.40
2022-10-24T09:05:54.707Z,7.20
2022-10-24T09:08:52.584Z,7.17
2022-10-24T09:11:56.015Z,7.53
2022-10-24T09:14:42.874Z,6.10
2022-10-24T09:17:33.193Z,6.13
2022-10-24T09:20:27.471Z,6.47
2022-10-24T09:23:13.354Z,6.37
2022-10-24T09:25:59.429Z,5.73
2022-10-24T09:28:45.328Z,5.87
2022-10-24T09:31:31.252Z,5.70
2022-10-24T09:34:18.717Z,7.17
2022-10-24T09:37:04.424Z,5.90
2022-10-24T09:40:05.007Z,6.27
2022-10-24T09:42:53.181Z,7.03
2022-10-24T09:45:41.772Z,5.80
2022-10-24T09:48:32.373Z,5.83
2022-10-24T09:51:27.350Z,6.20
2022-10-24T09:54:19.240Z,5.10
2022-10-24T09:57:11.018Z,6.13
2022-10-24T10:00:00.643Z,6.17
2022-10-24T10:02:57.129Z,5.50
2022-10-24T10:05:48.870Z,5.30
2022-10-24T10:08:35.847Z,5.77
2022-10-24T10:11:26.643Z,4.43
2022-10-24T10:14:23.857Z,5.87
2022-10-24T10:17:19.067Z,4.47
2022-10-24T10:20:05.083Z,8.87
2022-10-24T10:22:51.598Z,5.90
2022-10-24T10:25:38.909Z,5.33
2022-10-24T10:28:25.405Z,4.83
2022-10-24T10:31:11.430Z,4.63
2022-10-24T10:34:21.828Z,4.83
2022-10-24T10:37:23.144Z,4.40
2022-10-24T10:40:15.415Z,5.00
2022-10-24T10:43:04.227Z,4.70
2022-10-24T10:46:08.931Z,4.40
2022-10-24T10:48:54.826Z,4.53
2022-10-24T10:51:42.675Z,4.07
2022-10-24T10:54:40.575Z,4.70
2022-10-24T10:57:33.160Z,5.33
2022-10-24T11:00:25.968Z,5.87
2022-10-24T11:03:24.911Z,4.53
2022-10-24T11:06:10.423Z,3.90
2022-10-24T11:09:15.317Z,5.30
2022-10-24T11:12:13.149Z,4.83
2022-10-24T11:15:05.738Z,4.17
2022-10-24T11:17:55.392Z,4.07
2022-10-24T11:20:43.869Z,4.10
2022-10-24T11:23:40.319Z,4.53
2022-10-24T11:26:33.974Z,3.97
2022-10-24T11:29:24.856Z,4.63
2022-10-24T11:32:24.283Z,4.43
2022-10-24T11:35:26.441Z,3.70
2022-10-24T11:38:21.410Z,4.13
2022-10-24T11:41:20.485Z,4.23
2022-10-24T11:44:42.135Z,3.97
2022-10-24T11:47:28.860Z,4.30
2022-10-24T11:50:19.626Z,4.17
2022-10-24T11:53:13.776Z,3.80
2022-10-24T11:56:11.972Z,4.30
2022-10-24T11:59:08.160Z,3.70
2022-10-24T12:02:03.245Z,3.83
2022-10-24T12:05:05.718Z,3.87
2022-10-24T12:08:11.064Z,4.07
2022-10-24T12:11:10.701Z,3.50
2022-10-24T12:14:18.939Z,4.20
2022-10-24T12:17:23.359Z,3.93
2022-10-24T12:20:14.108Z,4.10
2022-10-24T12:23:01.622Z,3.63
2022-10-24T12:25:48.770Z,3.40
2022-10-24T12:28:34.883Z,3.27
2022-10-24T12:31:25.415Z,4.30
2022-10-24T12:34:22.829Z,4.40
2022-10-24T12:37:12.100Z,3.60
2022-10-24T12:39:58.739Z,3.13
2022-10-24T12:42:45.050Z,3.20
2022-10-24T12:45:32.816Z,2.63
2022-10-24T12:48:29.195Z,3.83
2022-10-24T12:51:34.054Z,2.93
2022-10-24T12:54:38.649Z,2.67
2022-10-24T12:57:25.849Z,2.90
2022-10-24T13:00:25.224Z,3.33
2022-10-24T13:03:22.659Z,3.17
2022-10-24T13:06:23.497Z,2.60
2022-10-24T13:09:28.903Z,2.87
2022-10-24T13:12:17.528Z,3.17
2022-10-24T13:15:09.343Z,2.93
2022-10-24T13:18:05.297Z,2.70
2022-10-24T13:21:06.514Z,2.53
2022-10-24T13:23:52.277Z,2.60
2022-10-24T13:26:39.627Z,2.80
2022-10-24T13:29:25.134Z,2.70
2022-10-24T13:32:10.914Z,2.53
2022-10-24T13:34:59.517Z,2.87
2022-10-24T13:37:47.017Z,2.97
2022-10-24T13:40:34.038Z,3.17
2022-10-24T13:43:20.282Z,3.00
2022-10-24T13:46:13.096Z,4.03
2022-10-24T13:49:00.454Z,3.07
2022-10-24T13:51:52.008Z,2.30
2022-10-24T13:54:38.826Z,3.07
2022-10-24T13:57:30.339Z,3.30
2022-10-24T14:00:20.556Z,2.50
2022-10-24T14:03:12.763Z,3.00
2022-10-24T14:06:03.557Z,2.57
2022-10-24T14:08:59.976Z,2.93
2022-10-24T14:11:51.877Z,2.53
2022-10-24T14:14:39.902Z,3.00
2022-10-24T14:17:30.665Z,3.20
2022-10-24T14:20:21.363Z,2.70
2022-10-24T14:23:26.027Z,3.00
2022-10-24T14:26:11.573Z,2.50
2022-10-24T14:29:00.987Z,2.27
2022-10-24T14:31:54.361Z,2.43
2022-10-24T14:34:40.307Z,2.40
2022-10-24T14:37:31.122Z,1.90
2022-10-24T14:40:18.034Z,2.10
2022-10-24T14:43:03.887Z,3.10
2022-10-24T14:46:08.131Z,2.37
2022-10-24T14:48:54.838Z,2.17
2022-10-24T14:51:41.479Z,2.00
2022-10-24T14:54:31.408Z,2.50
2022-10-24T14:57:18.932Z,2.40
2022-10-24T15:00:07.670Z,2.10
2022-10-24T15:02:55.291Z,2.50
2022-10-24T15:05:40.934Z,2.40
2022-10-24T15:08:28.432Z,2.13
2022-10-24T15:11:21.932Z,2.20
2022-10-24T15:14:27.893Z,2.80
2022-10-24T15:17:31.489Z,2.13
2022-10-24T15:20:23.756Z,2.67
2022-10-24T15:23:20.693Z,2.70
2022-10-24T15:26:11.347Z,2.10
2022-10-24T15:29:03.096Z,2.33
2022-10-24T15:31:50.166Z,2.70
2022-10-24T15:34:36.045Z,2.50
2022-10-24T15:37:23.488Z,3.07
2022-10-24T15:40:20.333Z,2.37
2022-10-24T15:43:06.048Z,3.07
2022-10-24T15:45:52.406Z,2.07
2022-10-24T15:48:39.394Z,2.73
2022-10-24T15:51:25.731Z,2.33
2022-10-24T15:54:15.539Z,2.40
2022-10-24T15:57:05.298Z,2.30
2022-10-24T15:59:51.367Z,2.60
2022-10-24T16:02:36.806Z,2.50
2022-10-24T16:05:23.898Z,2.30
2022-10-24T16:08:15.726Z,2.77
2022-10-24T16:11:04.938Z,2.20
2022-10-24T16:13:53.896Z,2.40
2022-10-24T16:16:39.759Z,2.63
2022-10-24T16:19:28.943Z,3.37
2022-10-24T16:22:16.437Z,2.73
2022-10-24T16:25:02.110Z,2.47
2022-10-24T16:27:50.966Z,2.80
2022-10-24T16:30:37.513Z,2.47
2022-10-24T16:33:23.707Z,2.60
2022-10-24T16:36:09.466Z,2.50
2022-10-24T16:38:56.531Z,2.37
2022-10-24T16:41:46.349Z,2.70
2022-10-24T16:44:36.193Z,3.10
2022-10-24T16:47:21.743Z,2.43
2022-10-24T16:50:08.315Z,3.90
2022-10-24T16:52:55.028Z,2.97
2022-10-24T16:55:41.046Z,2.43
2022-10-24T16:58:27.579Z,2.50
2022-10-24T17:01:15.108Z,2.80
2022-10-24T17:04:01.446Z,2.23
2022-10-24T17:06:47.090Z,2.83
2022-10-24T17:09:32.717Z,3.40
2022-10-24T17:12:18.505Z,2.57
2022-10-24T17:15:05.650Z,3.73
2022-10-24T17:17:51.167Z,2.90
2022-10-24T17:20:37.112Z,2.80
2022-10-24T17:23:23.976Z,3.13
2022-10-24T17:26:17.738Z,3.03
2022-10-24T17:29:03.747Z,3.63
2022-10-24T17:31:49.304Z,3.03
2022-10-24T17:34:35.311Z,3.80
2022-10-24T17:37:24.211Z,3.20
2022-10-24T17:40:14.948Z,2.50
2022-10-24T17:43:02.673Z,2.80
2022-10-24T17:45:49.255Z,2.93
2022-10-24T17:48:34.873Z,3.30
2022-10-24T17:51:22.619Z,2.87
2022-10-24T17:54:09.189Z,2.77
2022-10-24T17:56:55.689Z,3.40
2022-10-24T17:59:41.371Z,2.37
2022-10-24T18:02:28.549Z,2.63
2022-10-24T18:05:14.509Z,2.70
2022-10-24T18:08:00.497Z,2.90
2022-10-24T18:10:46.722Z,2.70
2022-10-24T18:13:35.629Z,2.53
2022-10-24T18:16:21.577Z,2.73
2022-10-24T18:19:08.238Z,3.03
2022-10-24T18:21:54.795Z,3.60
2022-10-24T18:24:40.649Z,2.13
2022-10-24T18:27:26.672Z,3.90
2022-10-24T18:30:12.920Z,2.77
2022-10-24T18:32:58.909Z,2.60
2022-10-24T18:35:44.767Z,2.47
2022-10-24T18:38:33.237Z,2.70
2022-10-24T18:41:31.718Z,2.77
2022-10-24T18:44:30.626Z,2.30
2022-10-24T18:47:18.789Z,2.87
2022-10-24T18:50:07.054Z,2.40
2022-10-24T18:52:55.747Z,2.30
2022-10-24T18:55:41.741Z,3.03
2022-10-24T18:58:27.945Z,2.70
2022-10-24T19:01:23.472Z,2.97
2022-10-24T19:04:13.708Z,2.30
2022-10-24T19:07:00.083Z,2.73
2022-10-24T19:09:47.303Z,2.40
2022-10-24T19:12:33.960Z,2.53
2022-10-24T19:15:20.535Z,2.40
2022-10-24T19:18:07.088Z,2.53
2022-10-24T19:20:52.920Z,2.43
2022-10-24T19:23:38.662Z,2.60
2022-10-24T19:26:27.412Z,2.60
2022-10-24T19:29:15.483Z,2.93
2022-10-24T19:32:01.844Z,2.97
2022-10-24T19:34:47.839Z,2.30
2022-10-24T19:37:33.934Z,2.30
2022-10-24T19:40:20.733Z,2.80
2022-10-24T19:43:06.628Z,2.90
2022-10-24T19:46:07.489Z,3.10
2022-10-24T19:49:00.698Z,2.60
2022-10-24T19:51:46.143Z,2.20
2022-10-24T19:54:32.717Z,2.43
2022-10-24T19:57:19.043Z,3.63
2022-10-24T20:00:05.088Z,3.10
2022-10-24T20:02:58.601Z,2.50
2022-10-24T20:05:44.189Z,2.60
2022-10-24T20:08:30.204Z,3.00
2022-10-24T20:11:16.375Z,3.20
2022-10-24T20:14:02.061Z,2.50
2022-10-24T20:16:47.810Z,2.67
2022-10-24T20:19:33.423Z,3.57
2022-10-24T20:22:18.881Z,2.63
2022-10-24T20:25:04.568Z,2.90
2022-10-24T20:27:50.365Z,3.20
2022-10-24T20:30:40.497Z,3.07
2022-10-24T20:33:26.459Z,2.80
2022-10-24T20:36:12.401Z,3.27
2022-10-24T20:39:01.205Z,2.97
2022-10-24T20:41:50.436Z,3.50
2022-10-24T20:44:39.533Z,4.60
2022-10-24T20:47:25.990Z,4.20
2022-10-24T20:50:11.572Z,4.53
2022-10-24T20:52:57.341Z,4.30
2022-10-24T20:55:44.998Z,3.90
2022-10-24T20:58:30.919Z,4.77
2022-10-24T21:01:24.987Z,4.57
2022-10-24T21:04:10.707Z,4.47
2022-10-24T21:06:56.483Z,5.07
2022-10-24T21:09:43.115Z,4.80
2022-10-24T21:12:28.966Z,4.90
2022-10-24T21:15:14.882Z,4.67
2022-10-24T21:18:00.812Z,5.50
2022-10-24T21:20:46.619Z,4.60
2022-10-24T21:23:32.532Z,4.80
2022-10-24T21:26:17.994Z,5.40
2022-10-24T21:29:09.268Z,4.70
2022-10-24T21:32:09.849Z,4.07
2022-10-24T21:34:55.771Z,4.70
2022-10-24T21:37:41.588Z,4.20
2022-10-24T21:40:27.517Z,4.10
2022-10-24T21:43:13.259Z,4.43
2022-10-24T21:46:03.951Z,3.90
2022-10-24T21:48:50.576Z,3.70
2022-10-24T21:51:39.088Z,3.77
2022-10-24T21:54:25.736Z,3.90
2022-10-24T21:57:11.347Z,3.63
2022-10-24T21:59:57.085Z,3.40
2022-10-24T22:02:43.143Z,3.70
2022-10-24T22:05:28.880Z,3.23
2022-10-24T22:08:14.776Z,3.67
2022-10-24T22:11:01.911Z,3.57
2022-10-24T22:13:48.576Z,3.30
2022-10-24T22:16:34.504Z,3.13
2022-10-24T22:19:20.307Z,3.20
2022-10-24T22:22:06.170Z,3.00
2022-10-24T22:24:52.002Z,3.23
2022-10-24T22:27:38.211Z,2.93
2022-10-24T22:30:23.720Z,3.57
2022-10-24T22:33:16.766Z,4.20
2022-10-24T22:36:08.816Z,3.10
2022-10-24T22:38:56.230Z,3.30
2022-10-24T22:41:42.442Z,3.20
2022-10-24T22:44:28.152Z,3.70
2022-10-24T22:47:17.098Z,3.43
2022-10-24T22:50:10.397Z,2.77
2022-10-24T22:52:56.171Z,2.83
2022-10-24T22:55:59.360Z,3.00
2022-10-24T22:58:45.642Z,2.90
2022-10-24T23:01:50.335Z,2.90
2022-10-24T23:04:40.275Z,3.23
2022-10-24T23:07:29.180Z,3.20
2022-10-24T23:10:18.025Z,2.80
2022-10-24T23:13:03.992Z,3.20
2022-10-24T23:15:49.849Z,3.17
2022-10-24T23:18:35.890Z,2.40
2022-10-24T23:21:32.421Z,2.63
2022-10-24T23:24:19.196Z,2.80
2022-10-24T23:27:25.434Z,5.27
2022-10-24T23:30:18.936Z,3.10
2022-10-24T23:33:04.757Z,3.27
2022-10-24T23:35:53.950Z,3.00
2022-10-24T23:38:40.362Z,2.50
2022-10-24T23:41:26.308Z,2.83
2022-10-24T23:44:12.688Z,2.60
2022-10-24T23:47:13.858Z,2.20
2022-10-24T23:50:06.627Z,2.37
2022-10-24T23:52:52.482Z,2.47
2022-10-24T23:55:40.583Z,2.27
2022-10-24T23:58:27.849Z,3.10
